Dannelly, Alabama
Current Conditions -  °F | °C
As of 2:58 PM on Tuesday 21 Oct 2014 (Local Time) from KMXF Reporting Station
Clear Clear  
Wind Chill: 78°   Ceiling: Unl
Heat Index: 79°   Visibility: 10mi
Dew Point: 50°   Wind: 6mph
Humidity: 37%   Direction: 340°NNW
Pressure: 29.98"   Gusts: NA
Location:  32.3488°N, 86.4016°W
Report Text: KMXF 211958Z AUTO 34005KT 10SM CLR 26/10 A2998 RMK AO2 SLP154 T02580101
Loading
Personal Weather Stations






























Interactive Weather Map
Tropical Storm Tracking
New forecast layout! Learn more

10-Day Weather Forecast

Advertisements
Track Severe Weather on mobile